createdAt,value
2018-06-18T00:01:25.890Z,59.90
2018-06-18T00:04:04.794Z,60.00
2018-06-18T00:06:41.335Z,59.90
2018-06-18T00:09:17.734Z,62.10
2018-06-18T00:11:54.058Z,62.00
2018-06-18T00:14:30.447Z,64.20
2018-06-18T00:17:07.970Z,63.90
2018-06-18T00:19:44.227Z,64.20
2018-06-18T00:22:20.658Z,65.10
2018-06-18T00:24:57.036Z,64.00
2018-06-18T00:27:33.496Z,63.30
2018-06-18T00:30:09.847Z,62.70
2018-06-18T00:32:46.346Z,64.70
2018-06-18T00:35:22.947Z,64.30
2018-06-18T00:37:59.489Z,64.60
2018-06-18T00:40:35.820Z,64.50
2018-06-18T00:43:12.274Z,64.70
2018-06-18T00:45:48.767Z,63.90
2018-06-18T00:48:25.229Z,63.90
2018-06-18T00:51:01.666Z,63.70
2018-06-18T00:53:38.158Z,63.50
2018-06-18T00:56:15.974Z,63.60
2018-06-18T00:58:52.424Z,63.10
2018-06-18T01:01:28.877Z,64.00
2018-06-18T01:04:09.200Z,62.90
2018-06-18T01:06:45.406Z,63.10
2018-06-18T01:09:22.692Z,63.80
2018-06-18T01:11:59.160Z,62.50
2018-06-18T01:14:35.678Z,63.70
2018-06-18T01:17:12.205Z,63.40
2018-06-18T01:19:48.663Z,64.00
2018-06-18T01:22:25.138Z,62.30
2018-06-18T01:25:05.419Z,61.00
2018-06-18T01:27:41.831Z,59.60
2018-06-18T01:30:18.221Z,58.50
2018-06-18T01:32:54.722Z,59.60
2018-06-18T01:35:31.347Z,60.10
2018-06-18T01:38:07.591Z,60.90
2018-06-18T01:40:44.129Z,62.30
2018-06-18T01:43:20.555Z,62.70
2018-06-18T01:48:33.119Z,61.90
2018-06-18T01:51:09.604Z,61.90
2018-06-18T01:53:45.896Z,61.90
2018-06-18T01:56:22.366Z,62.60
2018-06-18T01:58:58.894Z,62.40
2018-06-18T02:01:35.203Z,62.00
2018-06-18T02:04:11.671Z,59.40
2018-06-18T02:06:48.183Z,61.20
2018-06-18T02:09:25.581Z,62.90
2018-06-18T02:12:01.796Z,61.40
2018-06-18T02:14:38.275Z,64.90
2018-06-18T02:17:14.701Z,64.80
2018-06-18T02:19:51.447Z,66.20
2018-06-18T02:22:27.937Z,65.60
2018-06-18T02:25:04.436Z,64.70
2018-06-18T02:27:45.998Z,65.10
2018-06-18T02:30:27.588Z,65.70
2018-06-18T02:33:09.301Z,66.00
2018-06-18T02:35:51.099Z,65.20
2018-06-18T02:39:36.830Z,64.50
2018-06-18T02:42:13.344Z,65.80
2018-06-18T02:44:49.900Z,65.70
2018-06-18T02:47:26.200Z,66.00
2018-06-18T02:50:02.642Z,63.30
2018-06-18T02:52:38.920Z,64.80
2018-06-18T02:55:15.364Z,62.20
2018-06-18T02:57:51.843Z,63.50
2018-06-18T03:00:28.363Z,63.00
2018-06-18T03:03:04.685Z,62.90
2018-06-18T03:05:41.045Z,65.50
2018-06-18T03:08:17.504Z,64.10
2018-06-18T03:10:53.951Z,65.30
2018-06-18T03:13:30.431Z,65.40
2018-06-18T03:16:06.828Z,65.50
2018-06-18T03:18:48.327Z,64.90
2018-06-18T03:21:29.897Z,65.70
2018-06-18T03:24:10.664Z,65.70
2018-06-18T03:26:52.300Z,65.60
2018-06-18T03:29:30.945Z,65.20
2018-06-18T03:32:14.944Z,65.30
2018-06-18T03:34:51.579Z,63.90
2018-06-18T03:37:28.023Z,64.80
2018-06-18T03:40:05.497Z,64.20
2018-06-18T03:42:42.818Z,63.70
2018-06-18T03:45:25.827Z,64.20
2018-06-18T03:48:08.188Z,64.60
2018-06-18T03:50:44.657Z,64.80
2018-06-18T03:53:21.078Z,66.10
2018-06-18T03:56:00.238Z,65.70
2018-06-18T03:58:36.564Z,66.50
2018-06-18T04:01:58.645Z,65.80
2018-06-18T04:04:58.988Z,66.30
2018-06-18T04:07:41.224Z,65.40
2018-06-18T04:10:22.794Z,65.00
2018-06-18T04:12:59.422Z,65.50
2018-06-18T04:15:35.965Z,65.20
2018-06-18T04:18:12.327Z,64.60
2018-06-18T04:20:50.666Z,63.10
2018-06-18T04:23:27.030Z,63.20
2018-06-18T04:26:03.498Z,62.90
2018-06-18T04:28:40.126Z,62.40
2018-06-18T04:31:16.727Z,61.40
2018-06-18T04:34:07.637Z,61.70
2018-06-18T04:36:45.027Z,61.10
2018-06-18T04:39:21.643Z,62.30
2018-06-18T04:42:03.283Z,61.60
2018-06-18T04:44:45.112Z,61.40
2018-06-18T04:50:10.532Z,62.00
2018-06-18T04:52:47.317Z,62.80
2018-06-18T04:55:23.688Z,63.60
2018-06-18T04:58:00.194Z,63.20
2018-06-18T05:01:17.902Z,63.60
2018-06-18T05:03:54.736Z,63.00
2018-06-18T05:06:32.326Z,63.20
2018-06-18T05:09:20.998Z,63.10
2018-06-18T05:11:57.473Z,64.40
2018-06-18T05:14:33.706Z,64.20
2018-06-18T05:17:10.202Z,64.60
2018-06-18T05:19:46.677Z,64.80
2018-06-18T05:22:23.194Z,65.20
2018-06-18T05:24:59.875Z,64.20
2018-06-18T05:27:36.682Z,62.20
2018-06-18T05:30:20.487Z,60.60
2018-06-18T05:32:57.347Z,58.50
2018-06-18T05:35:33.766Z,57.90
2018-06-18T05:38:36.563Z,57.40
2018-06-18T05:41:12.934Z,56.80
2018-06-18T05:43:49.515Z,56.90
2018-06-18T05:46:25.959Z,56.10
2018-06-18T05:49:02.298Z,56.60
2018-06-18T05:51:38.879Z,55.80
2018-06-18T05:54:15.332Z,55.80
2018-06-18T05:56:52.889Z,55.60
2018-06-18T05:59:29.396Z,55.60
2018-06-18T06:02:06.019Z,55.60
2018-06-18T06:04:42.353Z,56.10
2018-06-18T06:07:19.337Z,54.70
2018-06-18T06:09:56.176Z,55.20
2018-06-18T06:12:32.577Z,55.50
2018-06-18T06:15:09.558Z,54.80
2018-06-18T06:17:45.918Z,53.80
2018-06-18T06:20:22.989Z,53.70
2018-06-18T06:22:59.459Z,51.30
2018-06-18T06:25:35.773Z,50.40
2018-06-18T06:28:12.306Z,48.30
2018-06-18T06:30:48.639Z,48.20
2018-06-18T06:33:26.671Z,46.20
2018-06-18T06:36:03.838Z,45.30
2018-06-18T06:38:40.254Z,45.60
2018-06-18T06:41:17.453Z,45.50
2018-06-18T06:43:54.062Z,44.00
2018-06-18T06:46:30.410Z,44.30
2018-06-18T06:49:06.911Z,41.90
2018-06-18T06:51:43.319Z,41.10
2018-06-18T06:54:19.701Z,41.50
2018-06-18T06:56:56.256Z,40.30
2018-06-18T06:59:32.755Z,40.70
2018-06-18T07:02:09.314Z,41.20
2018-06-18T07:04:45.735Z,41.70
2018-06-18T07:07:22.126Z,40.70
2018-06-18T07:09:58.615Z,40.50
2018-06-18T07:12:35.123Z,40.20
2018-06-18T07:15:11.612Z,40.10
2018-06-18T07:17:47.994Z,40.10
2018-06-18T07:20:24.822Z,40.00
2018-06-18T07:23:01.244Z,39.10
2018-06-18T07:25:37.739Z,39.20
2018-06-18T07:28:14.133Z,37.80
2018-06-18T07:30:50.642Z,37.80
2018-06-18T07:33:27.216Z,38.50
2018-06-18T07:36:03.745Z,38.30
2018-06-18T07:38:40.811Z,38.30
2018-06-18T07:41:17.306Z,38.10
2018-06-18T07:43:53.858Z,38.00
2018-06-18T07:49:06.559Z,37.50
2018-06-18T07:51:42.937Z,37.50
2018-06-18T07:54:19.475Z,38.80
2018-06-18T07:56:56.019Z,37.60
2018-06-18T07:59:32.472Z,38.50
2018-06-18T08:02:08.981Z,38.60
2018-06-18T08:04:45.486Z,39.00
2018-06-18T08:07:21.991Z,39.60
2018-06-18T08:09:58.367Z,38.10
2018-06-18T08:12:34.821Z,37.50
2018-06-18T08:15:11.352Z,34.90
2018-06-18T08:17:47.889Z,34.90
2018-06-18T08:20:24.272Z,34.00
2018-06-18T08:23:00.798Z,35.00
2018-06-18T08:25:38.457Z,35.30
2018-06-18T08:28:14.868Z,33.90
2018-06-18T08:30:51.197Z,33.30
2018-06-18T08:33:27.562Z,33.90
2018-06-18T08:36:04.044Z,32.90
2018-06-18T08:38:40.455Z,31.10
2018-06-18T08:41:16.905Z,32.20
2018-06-18T08:43:53.303Z,32.80
2018-06-18T08:46:29.717Z,31.50
2018-06-18T08:49:07.582Z,31.80
2018-06-18T08:51:49.205Z,33.50
2018-06-18T08:54:30.901Z,32.10
2018-06-18T08:57:12.842Z,30.90
2018-06-18T08:59:54.384Z,32.40
2018-06-18T09:02:32.761Z,34.20
2018-06-18T09:05:12.191Z,34.40
2018-06-18T09:07:55.043Z,31.30
2018-06-18T09:10:31.661Z,30.90
2018-06-18T09:13:08.755Z,31.70
2018-06-18T09:15:45.501Z,31.40
2018-06-18T09:18:22.051Z,31.40
2018-06-18T09:20:59.197Z,31.90
2018-06-18T09:23:35.706Z,29.90
2018-06-18T09:26:12.118Z,31.80
2018-06-18T09:28:48.618Z,30.80
2018-06-18T09:31:25.004Z,30.70
2018-06-18T09:34:01.390Z,30.30
2018-06-18T09:36:37.890Z,29.80
2018-06-18T09:39:15.430Z,32.60
2018-06-18T09:41:51.958Z,30.20
2018-06-18T09:44:28.468Z,30.90
2018-06-18T09:47:04.826Z,29.00
2018-06-18T09:49:46.769Z,31.20
2018-06-18T09:52:28.766Z,30.70
2018-06-18T09:55:10.453Z,31.60
2018-06-18T09:57:51.925Z,31.20
2018-06-18T10:00:51.535Z,32.40
2018-06-18T10:03:27.922Z,32.80
2018-06-18T10:06:07.133Z,34.40
2018-06-18T10:08:43.522Z,34.50
2018-06-18T10:11:19.905Z,33.60
2018-06-18T10:13:56.288Z,35.30
2018-06-18T10:16:32.711Z,35.20
2018-06-18T10:19:09.179Z,35.30
2018-06-18T10:21:45.723Z,35.90
2018-06-18T10:24:22.246Z,35.90
2018-06-18T10:26:58.579Z,35.90
2018-06-18T10:29:35.253Z,36.80
2018-06-18T10:32:16.905Z,35.00
2018-06-18T10:34:58.533Z,35.60
2018-06-18T10:37:39.985Z,35.60
2018-06-18T10:40:21.688Z,36.70
2018-06-18T10:43:03.898Z,36.80
2018-06-18T10:45:40.599Z,36.40
2018-06-18T10:48:17.064Z,36.80
2018-06-18T10:50:54.193Z,35.90
2018-06-18T10:53:30.635Z,36.50
2018-06-18T10:56:07.943Z,36.30
2018-06-18T10:58:44.461Z,38.00
2018-06-18T11:01:29.620Z,37.30
2018-06-18T11:04:06.254Z,36.70
2018-06-18T11:06:42.699Z,37.10
2018-06-18T11:09:19.191Z,35.30
2018-06-18T11:11:55.453Z,35.40
2018-06-18T11:14:32.001Z,36.00
2018-06-18T11:17:13.780Z,35.50
2018-06-18T11:19:55.199Z,36.10
2018-06-18T11:22:36.878Z,36.10
2018-06-18T11:25:18.710Z,35.90
2018-06-18T11:27:55.656Z,37.00
2018-06-18T11:30:33.138Z,36.50
2018-06-18T11:33:09.495Z,36.60
2018-06-18T11:35:46.282Z,37.20
2018-06-18T11:38:22.731Z,37.40
2018-06-18T11:40:59.355Z,37.30
2018-06-18T11:43:35.887Z,38.00
2018-06-18T11:46:13.498Z,37.90
2018-06-18T11:48:49.824Z,39.60
2018-06-18T11:51:26.977Z,38.90
2018-06-18T11:54:03.397Z,38.60
2018-06-18T11:56:39.818Z,39.10
2018-06-18T11:59:21.619Z,38.50
2018-06-18T12:03:02.233Z,39.60
2018-06-18T12:05:43.869Z,39.10
2018-06-18T12:08:25.461Z,39.90
2018-06-18T12:11:02.112Z,39.70
2018-06-18T12:13:38.646Z,40.50
2018-06-18T12:16:15.843Z,38.50
2018-06-18T12:18:52.166Z,38.20
2018-06-18T12:21:32.368Z,39.20
2018-06-18T12:24:09.751Z,39.20
2018-06-18T12:26:46.573Z,38.40
2018-06-18T12:29:22.823Z,39.30
2018-06-18T12:31:59.279Z,39.90
2018-06-18T12:34:35.773Z,38.40
2018-06-18T12:37:12.112Z,38.30
2018-06-18T12:39:49.403Z,38.10
2018-06-18T12:42:26.755Z,38.30
2018-06-18T12:45:08.483Z,37.70
2018-06-18T12:47:50.191Z,38.20
2018-06-18T12:50:31.931Z,37.60
2018-06-18T12:53:13.724Z,36.00
2018-06-18T12:55:55.783Z,36.90
2018-06-18T12:58:32.322Z,37.10
2018-06-18T13:01:10.620Z,37.60
2018-06-18T13:03:46.897Z,38.00
2018-06-18T13:06:23.340Z,37.30
2018-06-18T13:08:59.677Z,38.80
2018-06-18T13:11:37.421Z,37.70
2018-06-18T13:14:13.896Z,37.60
2018-06-18T13:16:50.271Z,37.60
2018-06-18T13:19:27.355Z,37.60
2018-06-18T13:22:03.846Z,39.30
2018-06-18T13:24:40.398Z,38.30
2018-06-18T13:27:16.959Z,38.60
2018-06-18T13:29:53.440Z,37.90
2018-06-18T13:32:29.928Z,38.60
2018-06-18T13:35:06.676Z,39.10
2018-06-18T13:37:48.345Z,39.30
2018-06-18T13:40:30.131Z,40.30
2018-06-18T13:43:11.719Z,40.00
2018-06-18T13:45:52.487Z,39.70
2018-06-18T13:49:03.834Z,38.10
2018-06-18T13:51:40.536Z,39.10
2018-06-18T13:54:17.901Z,38.50
2018-06-18T13:56:54.963Z,39.20
2018-06-18T13:59:31.427Z,38.30
2018-06-18T14:02:08.634Z,39.50
2018-06-18T14:04:45.053Z,38.50
2018-06-18T14:07:21.609Z,39.20
2018-06-18T14:09:57.810Z,38.40
2018-06-18T14:12:34.343Z,39.40
2018-06-18T14:15:10.847Z,38.10
2018-06-18T14:17:47.426Z,38.40
2018-06-18T14:20:24.910Z,39.30
2018-06-18T14:23:01.327Z,38.60
2018-06-18T14:25:37.869Z,39.50
2018-06-18T14:28:14.267Z,39.90
2018-06-18T14:30:55.604Z,38.40
2018-06-18T14:33:37.444Z,38.90
2018-06-18T14:36:19.285Z,39.70
2018-06-18T14:39:01.026Z,39.90
2018-06-18T14:41:37.548Z,39.70
2018-06-18T14:44:14.046Z,38.80
2018-06-18T14:46:51.630Z,40.20
2018-06-18T14:49:28.471Z,40.80
2018-06-18T14:52:05.003Z,39.70
2018-06-18T14:54:41.596Z,39.70
2018-06-18T14:57:18.053Z,39.10
2018-06-18T15:00:12.182Z,38.90
2018-06-18T15:02:48.840Z,40.70
2018-06-18T15:05:37.113Z,39.70
2018-06-18T15:08:13.574Z,41.10
2018-06-18T15:10:54.196Z,40.40
2018-06-18T15:13:30.676Z,39.40
2018-06-18T15:16:13.256Z,39.90
2018-06-18T15:18:49.780Z,40.10
2018-06-18T15:21:26.418Z,40.20
2018-06-18T15:24:07.677Z,40.90
2018-06-18T15:26:44.077Z,40.80
2018-06-18T15:29:20.411Z,40.10
2018-06-18T15:31:58.089Z,39.20
2018-06-18T15:34:34.417Z,40.60
2018-06-18T15:37:10.702Z,41.40
2018-06-18T15:39:47.278Z,41.20
2018-06-18T15:42:23.791Z,41.10
2018-06-18T15:45:00.159Z,40.80
2018-06-18T15:47:36.628Z,41.10
2018-06-18T15:50:13.071Z,40.30
2018-06-18T15:52:50.194Z,41.70
2018-06-18T15:55:27.527Z,42.00
2018-06-18T15:58:04.335Z,41.20
2018-06-18T16:00:40.718Z,41.10
2018-06-18T16:03:17.090Z,41.50
2018-06-18T16:05:53.578Z,40.70
2018-06-18T16:08:30.191Z,41.10
2018-06-18T16:13:43.539Z,41.70
2018-06-18T16:16:19.907Z,42.30
2018-06-18T16:18:57.002Z,42.40
2018-06-18T16:21:33.493Z,42.00
2018-06-18T16:24:09.934Z,43.50
2018-06-18T16:26:46.269Z,43.90
2018-06-18T16:29:22.704Z,42.60
2018-06-18T16:31:59.330Z,43.40
2018-06-18T16:34:35.742Z,43.20
2018-06-18T16:37:12.658Z,43.70
2018-06-18T16:39:49.153Z,43.90
2018-06-18T16:42:25.720Z,44.10
2018-06-18T16:45:02.072Z,44.70
2018-06-18T16:47:38.416Z,44.20
2018-06-18T16:50:15.050Z,44.10
2018-06-18T16:52:51.478Z,44.00
2018-06-18T16:55:27.898Z,44.60
2018-06-18T16:58:04.481Z,44.40
2018-06-18T17:00:41.036Z,44.70
2018-06-18T17:03:17.516Z,44.90
2018-06-18T17:05:53.816Z,45.10
2018-06-18T17:08:30.264Z,44.90
2018-06-18T17:11:06.807Z,44.70
2018-06-18T17:13:43.345Z,45.00
2018-06-18T17:16:19.919Z,45.20
2018-06-18T17:18:56.271Z,44.50
2018-06-18T17:21:32.734Z,45.40
2018-06-18T17:24:10.080Z,45.10
2018-06-18T17:26:46.634Z,45.30
2018-06-18T17:29:23.227Z,44.80
2018-06-18T17:32:00.663Z,45.70
2018-06-18T17:34:37.208Z,45.30
2018-06-18T17:37:13.532Z,45.30
2018-06-18T17:39:49.984Z,45.30
2018-06-18T17:42:27.913Z,45.40
2018-06-18T17:45:04.452Z,45.20
2018-06-18T17:47:40.991Z,45.90
2018-06-18T17:50:17.650Z,45.90
2018-06-18T17:52:53.987Z,46.10
2018-06-18T17:55:30.473Z,46.50
2018-06-18T17:58:07.103Z,46.30
2018-06-18T18:00:43.674Z,46.50
2018-06-18T18:03:20.141Z,46.80
2018-06-18T18:05:56.651Z,46.50
2018-06-18T18:08:33.039Z,47.00
2018-06-18T18:11:09.612Z,47.60
2018-06-18T18:13:46.013Z,47.10
2018-06-18T18:16:22.620Z,47.10
2018-06-18T18:18:59.259Z,47.10
2018-06-18T18:21:36.076Z,47.30
2018-06-18T18:24:12.757Z,47.60
2018-06-18T18:26:49.726Z,48.30
2018-06-18T18:29:26.423Z,47.60
2018-06-18T18:32:03.032Z,47.50
2018-06-18T18:34:39.552Z,47.70
2018-06-18T18:37:16.016Z,47.80
2018-06-18T18:39:52.563Z,48.10
2018-06-18T18:42:29.761Z,47.40
2018-06-18T18:45:06.702Z,47.50
2018-06-18T18:47:47.307Z,47.30
2018-06-18T18:50:24.700Z,47.90
2018-06-18T18:53:01.440Z,48.20
2018-06-18T18:55:58.789Z,48.30
2018-06-18T18:59:44.018Z,48.80
2018-06-18T19:04:59.408Z,48.80
2018-06-18T19:07:44.438Z,48.70
2018-06-18T19:10:27.593Z,48.90
2018-06-18T19:13:07.785Z,49.20
2018-06-18T19:15:44.297Z,49.70
2018-06-18T19:18:20.864Z,49.80
2018-06-18T19:21:01.666Z,49.70
2018-06-18T19:23:38.929Z,49.90
2018-06-18T19:26:15.548Z,50.20
2018-06-18T19:28:52.034Z,50.50
2018-06-18T19:31:29.748Z,50.80
2018-06-18T19:34:18.325Z,51.20
2018-06-18T19:36:56.546Z,51.40
2018-06-18T19:39:37.115Z,51.70
2018-06-18T19:42:14.606Z,51.80
2018-06-18T19:44:50.907Z,51.90
2018-06-18T19:47:36.401Z,52.00
2018-06-18T19:50:13.116Z,52.30
2018-06-18T19:52:49.982Z,52.30
2018-06-18T19:55:29.453Z,52.50
2018-06-18T19:58:05.975Z,52.60
2018-06-18T20:00:47.954Z,52.80
2018-06-18T20:03:24.385Z,53.00
2018-06-18T20:06:00.875Z,53.40
2018-06-18T20:08:38.195Z,53.40
2018-06-18T20:11:14.719Z,53.60
2018-06-18T20:13:51.155Z,53.50
2018-06-18T20:16:27.718Z,53.90
2018-06-18T20:19:04.373Z,53.70
2018-06-18T20:21:41.850Z,53.70
2018-06-18T20:24:18.270Z,54.50
2018-06-18T20:26:54.607Z,54.10
2018-06-18T20:29:30.971Z,54.50
2018-06-18T20:32:07.527Z,54.50
2018-06-18T20:34:45.171Z,54.40
2018-06-18T20:37:21.661Z,54.70
2018-06-18T20:39:58.460Z,54.70
2018-06-18T20:42:35.055Z,55.00
2018-06-18T20:45:11.638Z,54.90
2018-06-18T20:47:48.209Z,55.30
2018-06-18T20:50:24.607Z,55.30
2018-06-18T20:53:03.263Z,55.30
2018-06-18T20:55:40.224Z,55.60
2018-06-18T20:58:17.440Z,55.50
2018-06-18T21:00:53.798Z,55.80
2018-06-18T21:03:30.318Z,55.90
2018-06-18T21:06:06.768Z,55.90
2018-06-18T21:08:43.284Z,56.00
2018-06-18T21:11:19.652Z,56.40
2018-06-18T21:13:56.030Z,56.40
2018-06-18T21:16:32.491Z,56.50
2018-06-18T21:19:09.009Z,56.80
2018-06-18T21:21:45.465Z,57.10
2018-06-18T21:24:22.043Z,57.30
2018-06-18T21:26:58.448Z,57.60
2018-06-18T21:29:34.956Z,57.90
2018-06-18T21:32:11.394Z,58.20
2018-06-18T21:34:48.027Z,58.30
2018-06-18T21:37:24.666Z,58.70
2018-06-18T21:40:02.141Z,58.90
2018-06-18T21:42:38.693Z,59.20
2018-06-18T21:45:21.589Z,59.50
2018-06-18T21:47:59.203Z,59.70
2018-06-18T21:50:35.574Z,60.00
2018-06-18T21:53:13.106Z,60.20
2018-06-18T21:55:49.402Z,60.60
2018-06-18T21:58:26.986Z,60.80
2018-06-18T22:01:03.478Z,61.00
2018-06-18T22:03:40.650Z,61.40
2018-06-18T22:06:17.205Z,61.90
2018-06-18T22:08:54.256Z,62.10
2018-06-18T22:11:30.720Z,62.60
2018-06-18T22:14:07.189Z,62.80
2018-06-18T22:16:43.606Z,63.00
2018-06-18T22:19:20.195Z,63.40
2018-06-18T22:21:56.723Z,63.80
2018-06-18T22:24:33.209Z,63.40
2018-06-18T22:27:09.771Z,63.60
2018-06-18T22:29:46.363Z,63.90
2018-06-18T22:32:22.790Z,64.20
2018-06-18T22:34:59.180Z,64.40
2018-06-18T22:37:35.612Z,65.00
2018-06-18T22:40:12.134Z,65.20
2018-06-18T22:42:48.431Z,65.80
2018-06-18T22:45:24.708Z,66.20
2018-06-18T22:48:01.183Z,66.40
2018-06-18T22:50:37.663Z,66.70
2018-06-18T22:53:13.997Z,66.50
2018-06-18T22:55:50.494Z,66.50
2018-06-18T22:58:27.880Z,66.60
2018-06-18T23:01:04.611Z,67.40
2018-06-18T23:03:41.237Z,67.60
2018-06-18T23:06:17.664Z,67.50
2018-06-18T23:08:54.064Z,67.00
2018-06-18T23:11:30.427Z,67.50
2018-06-18T23:14:11.096Z,68.30
2018-06-18T23:16:47.492Z,69.00
2018-06-18T23:19:24.078Z,69.10
2018-06-18T23:22:00.531Z,69.00
2018-06-18T23:24:37.049Z,69.70
2018-06-18T23:27:13.355Z,69.40
2018-06-18T23:29:49.862Z,69.30
2018-06-18T23:32:26.250Z,69.70
2018-06-18T23:35:02.674Z,70.10
2018-06-18T23:37:39.178Z,70.00
2018-06-18T23:40:15.740Z,70.40
2018-06-18T23:42:52.216Z,70.40
2018-06-18T23:45:28.715Z,71.00
2018-06-18T23:48:05.357Z,70.70
2018-06-18T23:50:42.470Z,71.30
2018-06-18T23:53:19.128Z,71.80
2018-06-18T23:55:55.740Z,71.50
2018-06-18T23:58:32.058Z,72.20
